createdAt,value
2023-10-14T00:01:55.371Z,68.50
2023-10-14T00:04:27.554Z,68.50
2023-10-14T00:06:55.987Z,68.50
2023-10-14T00:09:24.107Z,68.40
2023-10-14T00:11:55.765Z,68.40
2023-10-14T00:14:25.057Z,68.40
2023-10-14T00:16:53.379Z,68.50
2023-10-14T00:19:23.130Z,68.50
2023-10-14T00:21:52.630Z,68.60
2023-10-14T00:24:28.013Z,68.50
2023-10-14T00:26:56.516Z,68.50
2023-10-14T00:29:30.258Z,68.50
2023-10-14T00:31:59.919Z,68.50
2023-10-14T00:34:28.045Z,69.00
2023-10-14T00:36:57.150Z,68.50
2023-10-14T00:39:28.312Z,69.00
2023-10-14T00:41:59.194Z,68.50
2023-10-14T00:44:29.158Z,68.50
2023-10-14T00:46:57.887Z,68.50
2023-10-14T00:49:32.130Z,68.60
2023-10-14T00:52:02.535Z,68.60
2023-10-14T00:54:52.293Z,68.60
2023-10-14T00:57:22.163Z,68.60
2023-10-14T00:59:54.761Z,68.60
2023-10-14T01:02:30.844Z,68.60
2023-10-14T01:05:07.854Z,68.70
2023-10-14T01:07:36.006Z,68.80
2023-10-14T01:10:06.400Z,68.80
2023-10-14T01:12:41.200Z,68.80
2023-10-14T01:15:20.392Z,68.80
2023-10-14T01:17:48.583Z,68.80
2023-10-14T01:20:27.853Z,69.00
2023-10-14T01:22:59.737Z,69.00
2023-10-14T01:25:33.971Z,69.10
2023-10-14T01:28:12.270Z,69.10
2023-10-14T01:30:51.905Z,69.20
2023-10-14T01:33:26.010Z,69.20
2023-10-14T01:35:54.255Z,69.20
2023-10-14T01:38:25.224Z,69.20
2023-10-14T01:40:54.280Z,69.30
2023-10-14T01:43:25.731Z,69.30
2023-10-14T01:46:01.925Z,69.30
2023-10-14T01:48:32.910Z,69.30
2023-10-14T01:51:01.321Z,69.30
2023-10-14T01:53:32.961Z,69.30
2023-10-14T01:56:02.489Z,69.40
2023-10-14T01:58:34.096Z,69.30
2023-10-14T02:01:08.894Z,69.40
2023-10-14T02:03:43.302Z,69.50
2023-10-14T02:06:19.305Z,69.50
2023-10-14T02:08:49.574Z,69.50
2023-10-14T02:11:21.787Z,69.60
2023-10-14T02:13:51.224Z,69.70
2023-10-14T02:16:25.358Z,69.70
2023-10-14T02:19:01.690Z,69.70
2023-10-14T02:21:34.756Z,69.80
2023-10-14T02:24:05.729Z,69.80
2023-10-14T02:26:34.765Z,69.90
2023-10-14T02:29:04.892Z,69.90
2023-10-14T02:31:36.932Z,69.90
2023-10-14T02:34:07.667Z,70.00
2023-10-14T02:36:37.306Z,70.00
2023-10-14T02:39:15.718Z,70.00
2023-10-14T02:41:45.296Z,70.70
2023-10-14T02:44:29.265Z,70.10
2023-10-14T02:47:02.897Z,70.10
2023-10-14T02:49:36.577Z,70.20
2023-10-14T02:52:09.921Z,70.20
2023-10-14T02:54:41.329Z,70.20
2023-10-14T02:57:16.047Z,70.20
2023-10-14T02:59:45.732Z,70.20
2023-10-14T03:02:18.592Z,70.30
2023-10-14T03:04:56.337Z,70.30
2023-10-14T03:07:28.561Z,70.30
2023-10-14T03:09:59.868Z,70.30
2023-10-14T03:12:28.326Z,70.30
2023-10-14T03:14:56.708Z,70.30
2023-10-14T03:17:40.233Z,70.40
2023-10-14T03:20:31.548Z,70.40
2023-10-14T03:23:00.463Z,70.90
2023-10-14T03:25:30.185Z,70.40
2023-10-14T03:28:08.668Z,70.40
2023-10-14T03:30:38.440Z,70.40
2023-10-14T03:33:10.394Z,70.40
2023-10-14T03:35:38.939Z,70.40
2023-10-14T03:38:16.279Z,70.40
2023-10-14T03:41:01.126Z,70.40
2023-10-14T03:43:29.634Z,70.40
2023-10-14T03:46:04.746Z,70.50
2023-10-14T03:48:43.295Z,70.50
2023-10-14T03:51:11.824Z,70.60
2023-10-14T03:53:39.672Z,70.60
2023-10-14T03:56:08.870Z,70.50
2023-10-14T03:58:38.977Z,70.50
2023-10-14T04:01:06.933Z,70.60
2023-10-14T04:03:42.019Z,70.60
2023-10-14T04:06:10.475Z,70.60
2023-10-14T04:08:47.528Z,70.60
2023-10-14T04:11:17.856Z,70.70
2023-10-14T04:13:59.681Z,70.70
2023-10-14T04:16:48.321Z,70.70
2023-10-14T04:19:28.902Z,70.60
2023-10-14T04:22:01.158Z,70.60
2023-10-14T04:24:46.707Z,70.70
2023-10-14T04:27:31.366Z,70.70
2023-10-14T04:30:04.619Z,70.70
2023-10-14T04:32:43.529Z,70.80
2023-10-14T04:35:15.313Z,70.70
2023-10-14T04:37:52.984Z,70.70
2023-10-14T04:40:36.837Z,70.70
2023-10-14T04:43:12.733Z,70.80
2023-10-14T04:45:46.484Z,70.80
2023-10-14T04:48:16.073Z,70.80
2023-10-14T04:50:45.418Z,70.80
2023-10-14T04:53:14.455Z,70.80
2023-10-14T04:55:45.135Z,70.80
2023-10-14T04:58:16.520Z,70.80
2023-10-14T05:00:46.820Z,70.80
2023-10-14T05:03:16.577Z,70.80
2023-10-14T05:05:47.073Z,70.80
2023-10-14T05:08:17.271Z,70.80
2023-10-14T05:10:45.194Z,70.80
2023-10-14T05:13:14.884Z,70.90
2023-10-14T05:15:44.038Z,70.90
2023-10-14T05:18:17.788Z,70.90
2023-10-14T05:20:57.279Z,70.90
2023-10-14T05:23:31.966Z,70.90
2023-10-14T05:26:01.009Z,70.90
2023-10-14T05:28:38.060Z,71.00
2023-10-14T05:31:09.523Z,70.90
2023-10-14T05:33:37.885Z,71.00
2023-10-14T05:36:07.186Z,71.00
2023-10-14T05:38:35.065Z,71.00
2023-10-14T05:41:07.862Z,71.00
2023-10-14T05:43:37.111Z,71.00
2023-10-14T05:46:13.329Z,71.00
2023-10-14T05:48:41.468Z,71.00
2023-10-14T05:51:09.413Z,68.40
2023-10-14T05:53:37.294Z,68.60
2023-10-14T05:56:11.149Z,71.00
2023-10-14T05:58:41.341Z,72.60
2023-10-14T06:01:10.377Z,72.30
2023-10-14T06:03:38.749Z,72.10
2023-10-14T06:06:10.861Z,72.10
2023-10-14T06:08:39.122Z,72.00
2023-10-14T06:11:07.705Z,71.90
2023-10-14T06:13:36.193Z,71.80
2023-10-14T06:16:10.982Z,71.60
2023-10-14T06:18:39.457Z,67.40
2023-10-14T06:21:08.252Z,66.10
2023-10-14T06:23:36.240Z,65.40
2023-10-14T06:26:06.838Z,64.40
2023-10-14T06:28:34.930Z,64.80
2023-10-14T06:31:05.412Z,63.80
2023-10-14T06:33:34.790Z,64.30
2023-10-14T06:36:05.334Z,65.10
2023-10-14T06:38:34.812Z,64.30
2023-10-14T06:41:03.250Z,63.60
2023-10-14T06:43:34.843Z,63.80
2023-10-14T06:46:06.095Z,63.30
2023-10-14T06:48:35.627Z,63.10
2023-10-14T06:51:03.637Z,62.90
2023-10-14T06:53:31.682Z,63.20
2023-10-14T06:56:01.803Z,64.80
2023-10-14T06:58:30.497Z,64.60
2023-10-14T07:00:59.616Z,64.70
2023-10-14T07:03:29.593Z,64.70
2023-10-14T07:06:00.541Z,64.50
2023-10-14T07:08:29.566Z,64.20
2023-10-14T07:10:58.058Z,64.00
2023-10-14T07:13:26.804Z,63.80
2023-10-14T07:15:55.735Z,63.60
2023-10-14T07:19:10.529Z,63.20
2023-10-14T07:21:39.875Z,59.40
2023-10-14T07:24:09.028Z,59.20
2023-10-14T07:26:38.432Z,58.70
2023-10-14T07:29:07.364Z,58.40
2023-10-14T07:31:37.886Z,57.80
2023-10-14T07:34:10.395Z,57.40
2023-10-14T07:36:40.261Z,57.20
2023-10-14T07:39:29.190Z,56.70
2023-10-14T07:41:58.067Z,56.00
2023-10-14T07:44:26.361Z,55.70
2023-10-14T07:46:55.507Z,55.30
2023-10-14T07:49:23.871Z,55.20
2023-10-14T07:51:58.102Z,54.90
2023-10-14T07:54:27.226Z,54.60
2023-10-14T07:56:55.183Z,53.90
2023-10-14T07:59:23.281Z,53.50
2023-10-14T08:01:52.159Z,52.80
2023-10-14T08:04:21.805Z,52.90
2023-10-14T08:06:49.709Z,52.40
2023-10-14T08:09:26.292Z,51.40
2023-10-14T08:11:54.693Z,52.70
2023-10-14T08:14:22.640Z,51.30
2023-10-14T08:16:50.585Z,49.30
2023-10-14T08:21:51.977Z,49.30
2023-10-14T08:24:21.869Z,49.00
2023-10-14T08:26:50.896Z,49.20
2023-10-14T08:29:21.437Z,49.90
2023-10-14T08:31:53.105Z,50.70
2023-10-14T08:34:24.633Z,49.50
2023-10-14T08:36:52.586Z,48.40
2023-10-14T08:39:25.022Z,48.00
2023-10-14T08:41:57.263Z,47.70
2023-10-14T08:44:29.403Z,46.40
2023-10-14T08:46:57.824Z,45.20
2023-10-14T08:49:29.994Z,46.00
2023-10-14T08:52:00.306Z,45.60
2023-10-14T08:54:32.031Z,44.70
2023-10-14T08:57:00.501Z,45.70
2023-10-14T08:59:28.430Z,43.50
2023-10-14T09:01:58.598Z,43.50
2023-10-14T09:04:30.644Z,43.60
2023-10-14T09:07:02.956Z,43.50
2023-10-14T09:09:33.638Z,43.00
2023-10-14T09:12:11.878Z,42.40
2023-10-14T09:14:40.151Z,42.20
2023-10-14T09:17:10.981Z,41.10
2023-10-14T09:19:49.444Z,42.10
2023-10-14T09:22:24.790Z,42.00
2023-10-14T09:24:56.192Z,42.60
2023-10-14T09:27:24.536Z,42.30
2023-10-14T09:29:52.406Z,42.30
2023-10-14T09:32:20.370Z,40.90
2023-10-14T09:34:48.411Z,42.20
2023-10-14T09:37:19.353Z,42.40
2023-10-14T09:39:51.217Z,43.80
2023-10-14T09:42:23.038Z,43.30
2023-10-14T09:44:53.048Z,42.40
2023-10-14T09:47:23.679Z,41.70
2023-10-14T09:49:53.719Z,42.70
2023-10-14T09:52:23.168Z,43.70
2023-10-14T09:54:53.640Z,43.70
2023-10-14T09:57:24.173Z,44.10
2023-10-14T09:59:54.362Z,43.40
2023-10-14T10:02:22.662Z,42.10
2023-10-14T10:04:52.280Z,43.10
2023-10-14T10:07:41.935Z,41.80
2023-10-14T10:10:17.130Z,37.50
2023-10-14T10:12:54.162Z,37.20
2023-10-14T10:15:22.611Z,35.50
2023-10-14T10:17:58.630Z,33.80
2023-10-14T10:20:30.775Z,35.60
2023-10-14T10:22:59.992Z,36.00
2023-10-14T10:25:50.815Z,38.20
2023-10-14T10:28:39.660Z,37.90
2023-10-14T10:31:10.957Z,39.20
2023-10-14T10:33:54.027Z,37.70
2023-10-14T10:36:23.900Z,37.80
2023-10-14T10:38:55.069Z,37.50
2023-10-14T10:41:26.457Z,37.70
2023-10-14T10:44:03.062Z,35.30
2023-10-14T10:46:39.690Z,33.40
2023-10-14T10:49:08.441Z,32.30
2023-10-14T10:51:37.029Z,30.50
2023-10-14T10:54:05.281Z,33.00
2023-10-14T10:56:35.233Z,31.70
2023-10-14T10:59:06.368Z,30.70
2023-10-14T11:01:34.967Z,30.80
2023-10-14T11:04:09.608Z,30.20
2023-10-14T11:06:38.054Z,30.80
2023-10-14T11:09:06.667Z,32.40
2023-10-14T11:11:37.417Z,30.50
2023-10-14T11:14:17.299Z,32.00
2023-10-14T11:16:46.920Z,32.40
2023-10-14T11:19:14.888Z,31.80
2023-10-14T11:21:43.480Z,33.70
2023-10-14T11:24:11.763Z,34.10
2023-10-14T11:26:39.930Z,32.50
2023-10-14T11:29:09.787Z,31.00
2023-10-14T11:31:40.302Z,33.00
2023-10-14T11:34:08.573Z,32.40
2023-10-14T11:36:44.232Z,31.00
2023-10-14T11:39:14.347Z,29.70
2023-10-14T11:41:42.869Z,28.70
2023-10-14T11:44:12.217Z,30.00
2023-10-14T11:46:42.318Z,30.80
2023-10-14T11:49:11.660Z,31.40
2023-10-14T11:51:43.011Z,31.30
2023-10-14T11:54:12.725Z,32.00
2023-10-14T11:56:41.327Z,31.20
2023-10-14T11:59:13.217Z,30.20
2023-10-14T12:01:46.376Z,31.80
2023-10-14T12:04:16.435Z,30.90
2023-10-14T12:06:44.995Z,29.60
2023-10-14T12:09:12.906Z,29.70
2023-10-14T12:11:42.764Z,29.40
2023-10-14T12:14:13.090Z,29.20
2023-10-14T12:16:41.965Z,29.10
2023-10-14T12:19:13.122Z,29.60
2023-10-14T12:21:43.376Z,31.10
2023-10-14T12:24:11.920Z,32.50
2023-10-14T12:26:45.559Z,33.40
2023-10-14T12:29:15.435Z,34.20
2023-10-14T12:31:46.092Z,34.90
2023-10-14T12:34:15.453Z,35.50
2023-10-14T12:36:44.116Z,35.70
2023-10-14T12:39:21.187Z,34.30
2023-10-14T12:41:52.037Z,33.80
2023-10-14T12:44:21.939Z,34.50
2023-10-14T12:46:50.221Z,35.30
2023-10-14T12:49:21.465Z,36.20
2023-10-14T12:51:50.287Z,36.90
2023-10-14T12:54:19.111Z,37.40
2023-10-14T12:56:48.874Z,38.10
2023-10-14T12:59:16.972Z,38.70
2023-10-14T13:01:48.793Z,39.10
2023-10-14T13:04:20.990Z,39.40
2023-10-14T13:06:50.832Z,39.00
2023-10-14T13:09:20.153Z,39.60
2023-10-14T13:11:48.381Z,40.10
2023-10-14T13:14:27.393Z,41.10
2023-10-14T13:17:00.328Z,42.00
2023-10-14T13:19:34.164Z,42.30
2023-10-14T13:22:03.849Z,42.40
2023-10-14T13:24:33.231Z,43.00
2023-10-14T13:27:01.610Z,43.40
2023-10-14T13:29:29.551Z,43.00
2023-10-14T13:31:58.787Z,44.10
2023-10-14T13:34:26.735Z,44.40
2023-10-14T13:36:59.069Z,44.90
2023-10-14T13:39:35.447Z,44.90
2023-10-14T13:42:03.638Z,45.00
2023-10-14T13:44:31.516Z,45.40
2023-10-14T13:49:33.204Z,44.10
2023-10-14T13:52:04.178Z,44.20
2023-10-14T13:54:32.436Z,42.00
2023-10-14T13:57:00.302Z,41.00
2023-10-14T13:59:28.158Z,36.10
2023-10-14T14:01:56.085Z,34.30
2023-10-14T14:04:25.559Z,33.50
2023-10-14T14:06:53.617Z,31.90
2023-10-14T14:09:24.752Z,31.10
2023-10-14T14:11:56.868Z,30.30
2023-10-14T14:14:25.784Z,30.30
2023-10-14T14:16:54.340Z,30.20
2023-10-14T14:19:23.239Z,30.20
2023-10-14T14:21:53.467Z,29.90
2023-10-14T14:24:23.335Z,31.00
2023-10-14T14:26:51.510Z,33.50
2023-10-14T14:29:19.716Z,35.70
2023-10-14T14:31:48.125Z,36.90
2023-10-14T14:34:16.651Z,36.20
2023-10-14T14:36:46.521Z,38.10
2023-10-14T14:39:16.922Z,40.70
2023-10-14T14:41:46.068Z,41.00
2023-10-14T14:44:14.812Z,41.50
2023-10-14T14:46:43.678Z,42.70
2023-10-14T14:49:14.085Z,42.60
2023-10-14T14:51:43.573Z,43.60
2023-10-14T14:54:12.036Z,43.50
2023-10-14T14:56:41.437Z,43.80
2023-10-14T14:59:14.337Z,43.30
2023-10-14T15:01:43.120Z,44.90
2023-10-14T15:04:11.478Z,45.70
2023-10-14T15:06:40.278Z,46.20
2023-10-14T15:09:15.674Z,46.80
2023-10-14T15:11:45.919Z,47.10
2023-10-14T15:14:16.862Z,46.90
2023-10-14T15:16:45.342Z,43.70
2023-10-14T15:19:16.724Z,40.70
2023-10-14T15:21:45.870Z,41.50
2023-10-14T15:24:14.620Z,43.30
2023-10-14T15:26:45.538Z,44.50
2023-10-14T15:29:13.792Z,45.30
2023-10-14T15:31:45.105Z,46.50
2023-10-14T15:34:14.825Z,47.40
2023-10-14T15:36:44.864Z,48.30
2023-10-14T15:39:17.452Z,48.80
2023-10-14T15:41:48.511Z,49.00
2023-10-14T15:44:16.571Z,49.30
2023-10-14T15:46:44.569Z,49.90
2023-10-14T15:49:12.771Z,50.90
2023-10-14T15:51:40.797Z,50.70
2023-10-14T15:54:10.466Z,51.00
2023-10-14T15:56:39.805Z,51.10
2023-10-14T15:59:09.246Z,51.20
2023-10-14T16:01:37.230Z,51.50
2023-10-14T16:04:05.770Z,49.90
2023-10-14T16:06:33.876Z,46.70
2023-10-14T16:09:02.047Z,48.30
2023-10-14T16:11:30.185Z,50.20
2023-10-14T16:13:59.614Z,50.90
2023-10-14T16:16:29.621Z,51.30
2023-10-14T16:18:57.662Z,51.40
2023-10-14T16:21:25.631Z,51.60
2023-10-14T16:23:53.549Z,51.90
2023-10-14T16:26:21.742Z,52.20
2023-10-14T16:28:50.337Z,52.40
2023-10-14T16:31:18.895Z,52.60
2023-10-14T16:33:49.072Z,52.60
2023-10-14T16:36:18.287Z,53.10
2023-10-14T16:38:47.363Z,53.30
2023-10-14T16:41:17.494Z,53.50
2023-10-14T16:43:45.459Z,54.50
2023-10-14T16:46:16.057Z,54.00
2023-10-14T16:48:44.357Z,54.20
2023-10-14T16:51:14.734Z,54.00
2023-10-14T16:53:42.733Z,50.40
2023-10-14T16:56:16.733Z,50.30
2023-10-14T16:58:47.129Z,49.70
2023-10-14T17:01:16.677Z,49.40
2023-10-14T17:03:46.001Z,49.80
2023-10-14T17:06:17.033Z,49.90
2023-10-14T17:08:44.962Z,51.60
2023-10-14T17:11:13.346Z,50.10
2023-10-14T17:13:41.637Z,51.50
2023-10-14T17:16:13.645Z,51.70
2023-10-14T17:18:44.491Z,51.80
2023-10-14T17:21:13.380Z,51.80
2023-10-14T17:23:42.684Z,51.80
2023-10-14T17:26:13.725Z,51.80
2023-10-14T17:28:41.795Z,51.90
2023-10-14T17:31:10.747Z,52.00
2023-10-14T17:33:38.947Z,52.20
2023-10-14T17:36:13.011Z,52.30
2023-10-14T17:38:43.294Z,52.40
2023-10-14T17:41:17.838Z,52.50
2023-10-14T17:43:46.172Z,52.60
2023-10-14T17:46:16.026Z,52.70
2023-10-14T17:48:44.356Z,52.60
2023-10-14T17:51:12.669Z,52.70
2023-10-14T17:53:42.984Z,52.80
2023-10-14T17:56:13.130Z,52.80
2023-10-14T17:58:42.144Z,52.80
2023-10-14T18:01:11.818Z,52.90
2023-10-14T18:03:39.998Z,53.00
2023-10-14T18:06:08.189Z,53.00
2023-10-14T18:08:36.084Z,53.10
2023-10-14T18:11:06.561Z,53.20
2023-10-14T18:13:34.640Z,53.20
2023-10-14T18:16:02.735Z,53.30
2023-10-14T18:18:30.902Z,53.30
2023-10-14T18:20:59.130Z,53.80
2023-10-14T18:23:27.228Z,54.70
2023-10-14T18:25:56.945Z,55.20
2023-10-14T18:28:26.689Z,54.60
2023-10-14T18:30:56.838Z,54.40
2023-10-14T18:33:24.920Z,54.30
2023-10-14T18:35:52.757Z,54.50
2023-10-14T18:38:21.185Z,54.60
2023-10-14T18:40:50.760Z,54.70
2023-10-14T18:43:20.474Z,54.70
2023-10-14T18:45:50.547Z,55.30
2023-10-14T18:48:18.844Z,55.40
2023-10-14T18:50:47.170Z,54.80
2023-10-14T18:53:15.116Z,55.70
2023-10-14T18:55:50.962Z,53.10
2023-10-14T18:58:19.404Z,55.70
2023-10-14T19:00:49.548Z,55.80
2023-10-14T19:03:18.253Z,56.00
2023-10-14T19:05:46.516Z,56.00
2023-10-14T19:08:15.775Z,56.10
2023-10-14T19:10:48.866Z,56.20
2023-10-14T19:13:17.821Z,56.00
2023-10-14T19:15:49.608Z,56.10
2023-10-14T19:18:20.800Z,56.10
2023-10-14T19:20:49.298Z,56.10
2023-10-14T19:23:20.721Z,56.00
2023-10-14T19:25:50.444Z,56.10
2023-10-14T19:28:22.229Z,56.20
2023-10-14T19:30:52.325Z,56.20
2023-10-14T19:33:24.756Z,56.20
2023-10-14T19:35:54.603Z,56.30
2023-10-14T19:38:23.120Z,56.20
2023-10-14T19:41:00.626Z,56.30
2023-10-14T19:43:32.128Z,56.30
2023-10-14T19:46:01.592Z,56.40
2023-10-14T19:48:30.924Z,56.30
2023-10-14T19:51:07.029Z,56.40
2023-10-14T19:53:34.904Z,56.40
2023-10-14T19:56:02.949Z,56.30
2023-10-14T19:58:34.681Z,56.30
2023-10-14T20:01:08.387Z,56.30
2023-10-14T20:03:38.308Z,56.40
2023-10-14T20:06:06.971Z,56.30
2023-10-14T20:08:35.686Z,56.50
2023-10-14T20:11:05.239Z,56.50
2023-10-14T20:13:33.206Z,56.50
2023-10-14T20:16:03.598Z,56.50
2023-10-14T20:18:34.057Z,56.50
2023-10-14T20:21:06.564Z,56.40
2023-10-14T20:23:35.898Z,56.50
2023-10-14T20:26:06.082Z,56.50
2023-10-14T20:28:34.111Z,56.50
2023-10-14T20:31:04.615Z,56.60
2023-10-14T20:33:33.116Z,56.60
2023-10-14T20:36:01.691Z,56.50
2023-10-14T20:38:31.743Z,56.60
2023-10-14T20:40:59.684Z,56.50
2023-10-14T20:43:27.608Z,56.60
2023-10-14T20:45:55.552Z,56.80
2023-10-14T20:48:23.425Z,55.90
2023-10-14T20:50:51.297Z,60.40
2023-10-14T20:53:19.298Z,59.70
2023-10-14T20:55:48.615Z,59.20
2023-10-14T20:58:17.633Z,59.20
2023-10-14T21:00:45.900Z,59.20
2023-10-14T21:03:21.912Z,59.10
2023-10-14T21:05:53.453Z,59.10
2023-10-14T21:08:25.509Z,59.20
2023-10-14T21:10:56.770Z,59.00
2023-10-14T21:13:28.151Z,59.10
2023-10-14T21:16:00.686Z,59.10
2023-10-14T21:18:29.297Z,59.00
2023-10-14T21:20:57.232Z,59.00
2023-10-14T21:23:25.658Z,59.00
2023-10-14T21:25:58.873Z,59.00
2023-10-14T21:28:27.098Z,63.50
2023-10-14T21:30:55.437Z,64.70
2023-10-14T21:33:23.547Z,63.70
2023-10-14T21:35:51.610Z,62.60
2023-10-14T21:38:19.612Z,61.70
2023-10-14T21:40:49.747Z,61.20
2023-10-14T21:43:20.383Z,61.10
2023-10-14T21:45:48.331Z,61.10
2023-10-14T21:48:16.274Z,61.10
2023-10-14T21:50:44.269Z,61.10
2023-10-14T21:53:13.427Z,61.10
2023-10-14T21:55:42.332Z,61.30
2023-10-14T21:58:10.990Z,61.00
2023-10-14T22:00:42.397Z,61.10
2023-10-14T22:03:13.395Z,61.40
2023-10-14T22:05:43.728Z,61.40
2023-10-14T22:08:13.292Z,61.40
2023-10-14T22:10:42.888Z,61.30
2023-10-14T22:13:11.891Z,61.60
2023-10-14T22:15:42.018Z,61.80
2023-10-14T22:18:10.435Z,61.70
2023-10-14T22:20:41.501Z,61.70
2023-10-14T22:23:10.809Z,61.80
2023-10-14T22:25:42.456Z,61.90
2023-10-14T22:28:12.881Z,61.90
2023-10-14T22:30:42.558Z,62.10
2023-10-14T22:33:10.758Z,62.10
2023-10-14T22:35:38.024Z,62.10
2023-10-14T22:38:10.625Z,62.10
2023-10-14T22:40:39.089Z,62.20
2023-10-14T22:43:09.282Z,62.30
2023-10-14T22:45:38.936Z,62.20
2023-10-14T22:48:11.030Z,61.60
2023-10-14T22:50:39.528Z,61.60
2023-10-14T22:53:11.209Z,61.70
2023-10-14T22:55:39.703Z,62.00
2023-10-14T22:58:07.699Z,62.20
2023-10-14T23:00:35.590Z,62.60
2023-10-14T23:03:10.946Z,62.90
2023-10-14T23:05:43.246Z,62.80
2023-10-14T23:08:13.992Z,62.80
2023-10-14T23:10:45.139Z,63.10
2023-10-14T23:13:14.786Z,62.60
2023-10-14T23:15:42.800Z,62.40
2023-10-14T23:18:11.710Z,62.60
2023-10-14T23:20:39.798Z,62.60
2023-10-14T23:23:09.066Z,62.40
2023-10-14T23:25:38.226Z,62.50
2023-10-14T23:28:08.035Z,62.50
2023-10-14T23:30:36.429Z,62.50
2023-10-14T23:33:05.101Z,62.50
2023-10-14T23:35:35.179Z,62.20
2023-10-14T23:38:07.298Z,62.10
2023-10-14T23:40:37.114Z,62.20
2023-10-14T23:43:09.753Z,62.10
2023-10-14T23:45:38.089Z,62.30
2023-10-14T23:48:06.898Z,62.20
2023-10-14T23:50:36.900Z,62.10
2023-10-14T23:53:07.762Z,62.20
2023-10-14T23:55:37.137Z,62.10
2023-10-14T23:58:05.652Z,62.10
